createdAt,value
2019-02-06T00:01:01.294Z,91.77
2019-02-06T00:03:30.521Z,86.10
2019-02-06T00:06:00.346Z,83.70
2019-02-06T00:08:30.072Z,79.17
2019-02-06T00:10:59.642Z,83.93
2019-02-06T00:13:31.680Z,78.17
2019-02-06T00:16:00.860Z,75.47
2019-02-06T00:18:30.399Z,70.43
2019-02-06T00:21:00.317Z,75.42
2019-02-06T00:23:29.534Z,82.70
2019-02-06T00:25:58.818Z,76.83
2019-02-06T00:28:28.008Z,71.47
2019-02-06T00:30:57.846Z,74.73
2019-02-06T00:33:27.019Z,69.60
2019-02-06T00:35:56.407Z,63.17
2019-02-06T00:38:25.672Z,67.20
2019-02-06T00:40:54.847Z,66.43
2019-02-06T00:43:24.576Z,61.07
2019-02-06T00:45:54.034Z,54.07
2019-02-06T00:48:23.249Z,58.00
2019-02-06T00:50:52.842Z,57.90
2019-02-06T00:53:22.148Z,48.33
2019-02-06T00:55:51.818Z,50.07
2019-02-06T00:58:21.317Z,45.20
2019-02-06T01:00:50.520Z,52.70
2019-02-06T01:03:20.196Z,51.97
2019-02-06T01:05:49.674Z,42.60
2019-02-06T01:08:20.392Z,40.43
2019-02-06T01:10:49.645Z,42.77
2019-02-06T01:13:19.634Z,35.33
2019-02-06T01:15:49.169Z,27.60
2019-02-06T01:18:18.668Z,33.83
2019-02-06T01:20:48.272Z,33.10
2019-02-06T01:23:17.501Z,27.77
2019-02-06T01:25:46.856Z,33.17
2019-02-06T01:28:16.353Z,30.67
2019-02-06T01:30:50.758Z,27.03
2019-02-06T01:33:20.412Z,28.90
2019-02-06T01:35:50.364Z,27.10
2019-02-06T01:38:19.921Z,25.40
2019-02-06T01:40:49.429Z,23.13
2019-02-06T01:43:19.432Z,22.67
2019-02-06T01:45:48.736Z,26.10
2019-02-06T01:48:18.247Z,23.60
2019-02-06T01:50:47.450Z,25.10
2019-02-06T01:53:16.605Z,23.80
2019-02-06T01:55:45.948Z,24.47
2019-02-06T01:58:15.513Z,18.40
2019-02-06T02:00:44.711Z,23.70
2019-02-06T02:03:13.904Z,26.93
2019-02-06T02:05:43.080Z,22.20
2019-02-06T02:08:12.385Z,28.53
2019-02-06T02:10:42.002Z,23.95
2019-02-06T02:13:11.219Z,23.07
2019-02-06T02:15:41.326Z,22.77
2019-02-06T02:18:10.947Z,26.93
2019-02-06T02:20:40.488Z,26.40
2019-02-06T02:23:10.213Z,21.47
2019-02-06T02:25:39.505Z,22.27
2019-02-06T02:28:09.091Z,22.80
2019-02-06T02:30:45.010Z,22.70
2019-02-06T02:33:14.233Z,19.00
2019-02-06T02:35:43.800Z,25.80
2019-02-06T02:38:13.200Z,23.10
2019-02-06T02:40:42.398Z,22.60
2019-02-06T02:43:11.970Z,22.23
2019-02-06T02:45:41.170Z,21.70
2019-02-06T02:48:10.375Z,21.80
2019-02-06T02:50:40.317Z,24.50
2019-02-06T02:53:09.949Z,18.90
2019-02-06T02:55:39.157Z,22.63
2019-02-06T02:58:08.947Z,21.53
2019-02-06T03:01:06.701Z,22.40
2019-02-06T03:03:53.454Z,25.47
2019-02-06T03:06:28.439Z,23.77
2019-02-06T03:08:54.178Z,24.37
2019-02-06T03:11:23.337Z,25.13
2019-02-06T03:13:52.582Z,17.63
2019-02-06T03:16:22.155Z,24.30
2019-02-06T03:18:52.285Z,22.00
2019-02-06T03:21:21.497Z,20.93
2019-02-06T03:23:50.740Z,22.17
2019-02-06T03:26:20.445Z,22.07
2019-02-06T03:28:49.817Z,23.43
2019-02-06T03:31:19.171Z,24.30
2019-02-06T03:33:48.745Z,22.90
2019-02-06T03:36:18.314Z,21.50
2019-02-06T03:38:48.024Z,22.23
2019-02-06T03:41:17.357Z,23.93
2019-02-06T03:43:46.653Z,25.30
2019-02-06T03:46:16.130Z,24.87
2019-02-06T03:48:45.805Z,25.40
2019-02-06T03:51:15.763Z,22.20
2019-02-06T03:53:45.385Z,21.90
2019-02-06T03:56:14.591Z,24.17
2019-02-06T03:58:43.782Z,22.70
2019-02-06T04:01:13.273Z,24.23
2019-02-06T04:03:42.957Z,21.40
2019-02-06T04:06:12.893Z,24.60
2019-02-06T04:08:42.498Z,19.83
2019-02-06T04:11:11.850Z,19.80
2019-02-06T04:13:41.065Z,23.00
2019-02-06T04:16:10.283Z,23.33
2019-02-06T04:18:41.687Z,24.60
2019-02-06T04:21:11.307Z,25.43
2019-02-06T04:23:40.875Z,23.43
2019-02-06T04:26:10.112Z,20.67
2019-02-06T04:28:39.711Z,20.27
2019-02-06T04:31:09.005Z,22.03
2019-02-06T04:33:38.987Z,23.63
2019-02-06T04:36:08.206Z,24.63
2019-02-06T04:38:37.531Z,23.27
2019-02-06T04:41:07.897Z,21.57
2019-02-06T04:43:37.127Z,26.43
2019-02-06T04:46:06.961Z,22.13
2019-02-06T04:48:37.980Z,23.80
2019-02-06T04:51:07.623Z,22.40
2019-02-06T04:53:36.781Z,22.93
2019-02-06T04:56:07.296Z,21.67
2019-02-06T04:58:36.861Z,25.07
2019-02-06T05:01:08.255Z,21.87
2019-02-06T05:03:37.694Z,23.63
2019-02-06T05:06:07.216Z,19.30
2019-02-06T05:08:36.783Z,30.50
2019-02-06T05:11:06.309Z,19.27
2019-02-06T05:13:37.070Z,24.40
2019-02-06T05:16:06.283Z,25.27
2019-02-06T05:18:35.961Z,21.33
2019-02-06T05:21:05.160Z,21.97
2019-02-06T05:23:34.927Z,24.73
2019-02-06T05:26:04.460Z,22.47
2019-02-06T05:28:33.789Z,24.63
2019-02-06T05:31:02.946Z,21.07
2019-02-06T05:33:33.892Z,29.40
2019-02-06T05:36:03.099Z,21.97
2019-02-06T05:38:32.625Z,21.57
2019-02-06T05:41:01.855Z,27.20
2019-02-06T05:43:31.082Z,26.10
2019-02-06T05:46:00.282Z,20.53
2019-02-06T05:48:30.495Z,20.37
2019-02-06T05:51:00.485Z,35.80
2019-02-06T05:53:29.728Z,23.83
2019-02-06T05:55:58.897Z,22.53
2019-02-06T05:58:28.110Z,23.60
2019-02-06T06:00:57.676Z,25.43
2019-02-06T06:03:27.404Z,24.43
2019-02-06T06:05:56.574Z,24.50
2019-02-06T06:08:26.067Z,25.00
2019-02-06T06:10:55.251Z,24.77
2019-02-06T06:13:24.710Z,27.20
2019-02-06T06:15:54.080Z,21.63
2019-02-06T06:18:23.363Z,22.50
2019-02-06T06:20:52.853Z,23.17
2019-02-06T06:23:23.000Z,25.30
2019-02-06T06:25:52.341Z,23.00
2019-02-06T06:28:21.512Z,26.00
2019-02-06T06:30:50.691Z,20.60
2019-02-06T06:33:20.244Z,24.23
2019-02-06T06:35:49.793Z,19.90
2019-02-06T06:38:19.105Z,21.70
2019-02-06T06:40:48.309Z,21.63
2019-02-06T06:43:17.823Z,20.60
2019-02-06T06:45:47.033Z,20.43
2019-02-06T06:48:16.201Z,25.23
2019-02-06T06:50:45.703Z,20.27
2019-02-06T06:53:14.868Z,22.10
2019-02-06T06:55:44.097Z,20.07
2019-02-06T06:58:13.252Z,24.43
2019-02-06T07:00:42.407Z,27.57
2019-02-06T07:03:11.598Z,22.97
2019-02-06T07:05:40.922Z,25.40
2019-02-06T07:08:13.410Z,25.03
2019-02-06T07:10:42.249Z,17.27
2019-02-06T07:13:11.795Z,20.50
2019-02-06T07:15:41.317Z,18.93
2019-02-06T07:18:10.700Z,22.20
2019-02-06T07:20:40.571Z,23.47
2019-02-06T07:23:10.040Z,20.47
2019-02-06T07:25:39.654Z,20.07
2019-02-06T07:28:09.129Z,19.43
2019-02-06T07:30:38.366Z,22.07
2019-02-06T07:33:07.716Z,20.33
2019-02-06T07:35:36.875Z,20.57
2019-02-06T07:38:06.033Z,24.63
2019-02-06T07:40:35.351Z,22.57
2019-02-06T07:43:04.519Z,19.13
2019-02-06T07:45:33.703Z,19.73
2019-02-06T07:48:03.275Z,17.20
2019-02-06T07:50:33.331Z,21.57
2019-02-06T07:53:03.203Z,15.57
2019-02-06T07:55:32.401Z,28.97
2019-02-06T07:58:01.921Z,19.73
2019-02-06T08:00:31.050Z,19.77
2019-02-06T08:03:00.845Z,23.17
2019-02-06T08:05:30.704Z,22.30
2019-02-06T08:07:59.917Z,23.17
2019-02-06T08:10:31.139Z,23.87
2019-02-06T08:13:00.306Z,21.20
2019-02-06T08:15:29.598Z,19.30
2019-02-06T08:17:58.766Z,20.70
2019-02-06T08:20:27.929Z,21.00
2019-02-06T08:22:57.486Z,21.53
2019-02-06T08:25:26.690Z,22.20
2019-02-06T08:27:56.177Z,22.10
2019-02-06T08:30:27.845Z,23.20
2019-02-06T08:32:57.019Z,15.90
2019-02-06T08:35:26.161Z,20.87
2019-02-06T08:37:55.475Z,19.47
2019-02-06T08:40:26.042Z,28.60
2019-02-06T08:42:55.542Z,18.10
2019-02-06T08:45:25.401Z,20.83
2019-02-06T08:47:54.694Z,22.93
2019-02-06T08:50:24.240Z,25.23
2019-02-06T08:52:53.652Z,20.27
2019-02-06T08:55:24.854Z,21.10
2019-02-06T08:57:54.800Z,21.37
2019-02-06T09:00:26.367Z,21.90
2019-02-06T09:02:55.933Z,22.60
2019-02-06T09:05:25.630Z,26.27
2019-02-06T09:07:55.042Z,24.40
2019-02-06T09:10:24.423Z,29.27
2019-02-06T09:12:55.267Z,27.00
2019-02-06T09:15:27.119Z,23.23
2019-02-06T09:17:56.421Z,23.47
2019-02-06T09:20:26.586Z,20.10
2019-02-06T09:22:56.380Z,19.47
2019-02-06T09:25:25.903Z,21.80
2019-02-06T09:27:55.407Z,23.90
2019-02-06T09:30:26.357Z,21.77
2019-02-06T09:32:55.948Z,23.63
2019-02-06T09:35:25.959Z,26.33
2019-02-06T09:37:55.282Z,26.17
2019-02-06T09:40:26.642Z,22.97
2019-02-06T09:42:55.832Z,23.30
2019-02-06T09:45:25.088Z,23.87
2019-02-06T09:47:54.430Z,31.47
2019-02-06T09:50:26.573Z,31.13
2019-02-06T09:52:56.366Z,33.53
2019-02-06T09:55:25.540Z,29.30
2019-02-06T09:57:54.818Z,29.33
2019-02-06T10:00:29.070Z,29.60
2019-02-06T10:02:58.250Z,28.00
2019-02-06T10:05:27.554Z,28.17
2019-02-06T10:07:56.751Z,28.57
2019-02-06T10:10:25.997Z,28.77
2019-02-06T10:12:55.263Z,33.83
2019-02-06T10:15:26.258Z,32.43
2019-02-06T10:17:56.709Z,31.53
2019-02-06T10:20:40.711Z,24.07
2019-02-06T10:23:09.969Z,34.80
2019-02-06T10:25:39.608Z,28.27
2019-02-06T10:28:09.128Z,28.17
2019-02-06T10:30:46.787Z,30.43
2019-02-06T10:33:18.675Z,29.70
2019-02-06T10:35:46.965Z,27.90
2019-02-06T10:38:17.456Z,31.17
2019-02-06T10:40:47.020Z,30.05
2019-02-06T10:43:16.440Z,35.97
2019-02-06T10:45:45.577Z,33.20
2019-02-06T10:48:14.754Z,38.63
2019-02-06T10:50:46.613Z,36.57
2019-02-06T10:53:15.818Z,31.60
2019-02-06T10:55:45.063Z,37.53
2019-02-06T10:58:14.657Z,32.83
2019-02-06T11:00:53.068Z,32.93
2019-02-06T11:03:22.525Z,33.57
2019-02-06T11:05:52.041Z,31.50
2019-02-06T11:08:21.253Z,37.83
2019-02-06T11:10:50.427Z,31.03
2019-02-06T11:13:20.010Z,28.90
2019-02-06T11:15:49.256Z,36.23
2019-02-06T11:18:18.928Z,31.23
2019-02-06T11:20:48.303Z,28.97
2019-02-06T11:23:17.761Z,32.00
2019-02-06T11:25:46.952Z,32.33
2019-02-06T11:28:16.567Z,25.70
2019-02-06T11:30:45.755Z,27.50
2019-02-06T11:33:15.022Z,27.87
2019-02-06T11:35:44.661Z,28.40
2019-02-06T11:38:14.135Z,33.30
2019-02-06T11:40:43.445Z,29.57
2019-02-06T11:43:13.054Z,31.37
2019-02-06T11:45:42.225Z,30.17
2019-02-06T11:48:11.423Z,30.90
2019-02-06T11:50:42.308Z,27.27
2019-02-06T11:53:16.853Z,27.97
2019-02-06T11:55:46.137Z,29.43
2019-02-06T11:58:15.712Z,26.93
2019-02-06T12:01:19.107Z,27.30
2019-02-06T12:03:48.274Z,33.27
2019-02-06T12:06:18.135Z,30.40
2019-02-06T12:08:47.357Z,34.10
2019-02-06T12:11:16.520Z,35.33
2019-02-06T12:13:45.931Z,30.80
2019-02-06T12:16:15.465Z,33.37
2019-02-06T12:18:44.941Z,31.97
2019-02-06T12:21:17.810Z,29.47
2019-02-06T12:23:45.591Z,30.27
2019-02-06T12:26:14.768Z,33.60
2019-02-06T12:28:44.216Z,32.00
2019-02-06T12:31:13.436Z,29.57
2019-02-06T12:33:42.616Z,31.50
2019-02-06T12:36:12.182Z,32.10
2019-02-06T12:38:52.759Z,34.80
2019-02-06T12:41:12.272Z,37.43
2019-02-06T12:43:42.086Z,34.73
2019-02-06T12:46:11.255Z,34.77
2019-02-06T12:48:40.438Z,29.20
2019-02-06T12:51:10.392Z,28.30
2019-02-06T12:53:40.276Z,31.33
2019-02-06T12:56:09.718Z,30.20
2019-02-06T12:58:38.918Z,30.73
2019-02-06T13:01:08.288Z,33.57
2019-02-06T13:03:37.465Z,32.23
2019-02-06T13:06:07.320Z,29.83
2019-02-06T13:08:36.943Z,32.40
2019-02-06T13:11:07.033Z,32.70
2019-02-06T13:13:36.220Z,30.20
2019-02-06T13:16:05.716Z,31.10
2019-02-06T13:18:34.992Z,35.10
2019-02-06T13:21:04.186Z,35.23
2019-02-06T13:23:33.364Z,31.73
2019-02-06T13:26:02.853Z,34.00
2019-02-06T13:28:32.165Z,33.00
2019-02-06T13:31:01.351Z,34.60
2019-02-06T13:33:30.560Z,37.97
2019-02-06T13:36:00.195Z,38.47
2019-02-06T13:38:29.381Z,32.57
2019-02-06T13:40:58.556Z,42.83
2019-02-06T13:43:27.691Z,38.50
2019-02-06T13:45:56.961Z,41.07
2019-02-06T13:48:26.134Z,36.57
2019-02-06T13:50:55.563Z,43.10
2019-02-06T13:53:24.730Z,43.47
2019-02-06T13:55:53.934Z,43.30
2019-02-06T13:58:23.756Z,37.97
2019-02-06T14:00:53.018Z,37.83
2019-02-06T14:03:22.273Z,42.47
2019-02-06T14:05:51.887Z,38.87
2019-02-06T14:08:21.125Z,40.53
2019-02-06T14:11:00.290Z,42.00
2019-02-06T14:13:21.703Z,36.50
2019-02-06T14:15:50.877Z,40.43
2019-02-06T14:18:20.105Z,42.27
2019-02-06T14:20:52.274Z,37.00
2019-02-06T14:23:25.470Z,38.37
2019-02-06T14:26:10.441Z,37.10
2019-02-06T14:29:06.235Z,42.37
2019-02-06T14:32:09.433Z,42.73
2019-02-06T14:35:08.988Z,38.70
2019-02-06T14:38:27.371Z,37.30
2019-02-06T14:41:20.769Z,34.90
2019-02-06T14:44:37.314Z,42.97
2019-02-06T14:47:40.079Z,39.13
2019-02-06T14:50:37.550Z,39.60
2019-02-06T14:53:44.647Z,44.43
2019-02-06T14:56:39.196Z,48.63
2019-02-06T14:59:36.931Z,41.40
2019-02-06T15:02:57.030Z,40.70
2019-02-06T15:06:10.378Z,42.10
2019-02-06T15:09:40.105Z,39.27
2019-02-06T15:12:33.473Z,46.20
2019-02-06T15:15:43.361Z,37.70
2019-02-06T15:18:50.355Z,45.93
2019-02-06T15:21:57.126Z,43.60
2019-02-06T15:25:04.536Z,45.03
2019-02-06T15:28:13.985Z,47.27
2019-02-06T15:31:39.482Z,49.43
2019-02-06T15:34:41.386Z,52.27
2019-02-06T15:37:28.024Z,52.00
2019-02-06T15:40:15.810Z,46.03
2019-02-06T15:43:00.064Z,47.73
2019-02-06T15:46:08.945Z,62.27
2019-02-06T15:49:04.113Z,52.23
2019-02-06T15:52:17.125Z,55.97
2019-02-06T15:55:39.546Z,50.90
2019-02-06T15:58:36.324Z,56.47
2019-02-06T16:01:44.257Z,53.47
2019-02-06T16:05:05.734Z,52.90
2019-02-06T16:08:05.571Z,62.27
2019-02-06T16:11:03.101Z,88.80
2019-02-06T16:14:24.468Z,63.07
2019-02-06T16:17:37.028Z,97.33
2019-02-06T16:20:31.516Z,94.33
2019-02-06T16:23:49.951Z,81.10
2019-02-06T16:27:06.411Z,68.47
2019-02-06T16:30:26.020Z,76.03
2019-02-06T16:33:19.515Z,83.63
2019-02-06T16:36:25.640Z,73.43
2019-02-06T16:39:17.546Z,68.90
2019-02-06T16:42:23.649Z,69.27
2019-02-06T16:45:46.048Z,78.50
2019-02-06T16:48:55.043Z,63.77
2019-02-06T16:51:31.752Z,65.83
2019-02-06T16:54:33.304Z,67.73
2019-02-06T16:57:38.924Z,66.73
2019-02-06T17:00:33.857Z,66.35
2019-02-06T17:03:41.380Z,64.27
2019-02-06T17:06:38.040Z,76.70
2019-02-06T17:09:58.091Z,80.27
2019-02-06T17:12:56.886Z,71.23
2019-02-06T17:16:07.694Z,73.17
2019-02-06T17:19:20.041Z,78.37
2019-02-06T17:22:13.976Z,72.13
2019-02-06T17:25:26.539Z,102.10
2019-02-06T17:28:28.011Z,85.63
2019-02-06T17:31:14.080Z,70.13
2019-02-06T17:34:09.855Z,60.63
2019-02-06T17:37:01.561Z,66.30
2019-02-06T17:40:03.196Z,60.77
2019-02-06T17:42:58.133Z,67.20
2019-02-06T17:46:07.613Z,58.57
2019-02-06T17:49:12.560Z,66.93
2019-02-06T17:52:23.320Z,71.43
2019-02-06T17:55:25.287Z,67.10
2019-02-06T17:58:06.453Z,75.07
2019-02-06T18:01:04.710Z,82.73
2019-02-06T18:03:38.787Z,79.00
2019-02-06T18:06:08.984Z,75.07
2019-02-06T18:08:40.785Z,76.10
2019-02-06T18:11:10.483Z,74.35
2019-02-06T18:13:40.249Z,73.63
2019-02-06T18:16:20.811Z,79.80
2019-02-06T18:18:40.576Z,73.73
2019-02-06T18:21:10.346Z,77.47
2019-02-06T18:23:39.825Z,79.07
2019-02-06T18:26:09.055Z,79.80
2019-02-06T18:28:39.685Z,92.63
2019-02-06T18:31:09.362Z,81.83
2019-02-06T18:33:38.952Z,76.47
2019-02-06T18:36:08.569Z,73.70
2019-02-06T18:38:46.613Z,80.30
2019-02-06T18:41:11.414Z,93.60
2019-02-06T18:43:40.624Z,84.40
2019-02-06T18:46:10.090Z,94.10
2019-02-06T18:48:39.706Z,69.50
2019-02-06T18:51:08.847Z,94.03
2019-02-06T18:53:38.064Z,73.33
2019-02-06T18:56:07.334Z,83.70
2019-02-06T18:58:36.560Z,74.80
2019-02-06T19:01:07.043Z,79.13
2019-02-06T19:03:39.666Z,81.00
2019-02-06T19:06:09.214Z,93.40
2019-02-06T19:08:40.094Z,86.77
2019-02-06T19:11:09.865Z,80.77
2019-02-06T19:13:39.052Z,86.30
2019-02-06T19:16:08.287Z,87.43
2019-02-06T19:18:37.800Z,85.83
2019-02-06T19:21:07.271Z,90.37
2019-02-06T19:23:36.845Z,69.60
2019-02-06T19:26:06.427Z,79.70
2019-02-06T19:28:36.172Z,79.43
2019-02-06T19:31:05.684Z,86.67
2019-02-06T19:33:34.836Z,83.07
2019-02-06T19:36:04.447Z,77.60
2019-02-06T19:38:34.020Z,86.53
2019-02-06T19:41:03.611Z,84.57
2019-02-06T19:43:33.133Z,81.93
2019-02-06T19:46:02.348Z,85.17
2019-02-06T19:48:32.256Z,90.10
2019-02-06T19:51:01.462Z,75.03
2019-02-06T19:53:30.667Z,76.53
2019-02-06T19:55:59.881Z,85.70
2019-02-06T19:58:29.764Z,83.63
2019-02-06T20:00:59.400Z,92.43
2019-02-06T20:03:28.555Z,82.73
2019-02-06T20:05:58.105Z,87.27
2019-02-06T20:08:27.697Z,73.80
2019-02-06T20:10:57.601Z,76.40
2019-02-06T20:13:26.768Z,75.13
2019-02-06T20:15:56.529Z,68.07
2019-02-06T20:18:25.818Z,78.67
2019-02-06T20:20:55.332Z,77.57
2019-02-06T20:23:24.582Z,72.77
2019-02-06T20:25:54.189Z,66.87
2019-02-06T20:28:23.490Z,65.70
2019-02-06T20:30:52.693Z,72.23
2019-02-06T20:33:22.319Z,64.90
2019-02-06T20:35:51.521Z,77.83
2019-02-06T20:38:20.728Z,70.53
2019-02-06T20:40:50.241Z,71.53
2019-02-06T20:43:22.271Z,73.30
2019-02-06T20:45:50.861Z,84.60
2019-02-06T20:48:20.740Z,102.97
2019-02-06T20:50:51.613Z,78.20
2019-02-06T20:53:21.153Z,77.50
2019-02-06T20:55:50.363Z,77.27
2019-02-06T20:58:19.560Z,76.20
2019-02-06T21:00:49.193Z,75.43
2019-02-06T21:03:18.806Z,79.70
2019-02-06T21:05:48.688Z,73.57
2019-02-06T21:08:18.338Z,82.73
2019-02-06T21:10:48.176Z,73.93
2019-02-06T21:13:19.070Z,80.53
2019-02-06T21:15:48.314Z,85.53
2019-02-06T21:18:17.535Z,71.00
2019-02-06T21:20:46.782Z,80.00
2019-02-06T21:23:16.371Z,77.30
2019-02-06T21:25:46.178Z,78.78
2019-02-06T21:28:15.854Z,85.50
2019-02-06T21:30:47.003Z,70.83
2019-02-06T21:33:15.936Z,81.53
2019-02-06T21:35:45.162Z,79.73
2019-02-06T21:38:14.309Z,73.00
2019-02-06T21:40:43.819Z,67.93
2019-02-06T21:43:13.015Z,77.27
2019-02-06T21:45:42.253Z,72.43
2019-02-06T21:48:12.031Z,70.47
2019-02-06T21:50:41.472Z,71.47
2019-02-06T21:53:11.131Z,71.87
2019-02-06T21:55:40.338Z,70.30
2019-02-06T21:58:09.863Z,75.53
2019-02-06T22:00:40.974Z,67.30
2019-02-06T22:03:10.972Z,67.40
2019-02-06T22:05:40.553Z,66.80
2019-02-06T22:08:09.761Z,79.90
2019-02-06T22:10:38.943Z,77.13
2019-02-06T22:13:08.838Z,64.63
2019-02-06T22:15:38.303Z,75.93
2019-02-06T22:18:07.947Z,66.27
2019-02-06T22:20:37.104Z,82.03
2019-02-06T22:23:06.285Z,73.40
2019-02-06T22:25:35.524Z,73.93
2019-02-06T22:28:04.700Z,67.43
2019-02-06T22:30:34.066Z,81.40
2019-02-06T22:33:03.631Z,73.40
2019-02-06T22:35:32.931Z,74.37
2019-02-06T22:38:02.098Z,79.10
2019-02-06T22:40:31.296Z,76.93
2019-02-06T22:43:00.565Z,66.70
2019-02-06T22:45:30.096Z,86.43
2019-02-06T22:47:59.573Z,80.63
2019-02-06T22:50:28.912Z,80.53
2019-02-06T22:52:58.235Z,88.67
2019-02-06T22:55:27.784Z,82.17
2019-02-06T22:57:56.980Z,80.13
2019-02-06T23:00:56.850Z,86.33
2019-02-06T23:03:38.342Z,91.57
2019-02-06T23:06:09.074Z,97.30
2019-02-06T23:08:38.358Z,89.67
2019-02-06T23:11:07.622Z,90.00
2019-02-06T23:13:37.420Z,85.53
2019-02-06T23:16:07.044Z,89.47
2019-02-06T23:18:36.217Z,82.23
2019-02-06T23:21:05.595Z,86.37
2019-02-06T23:23:35.130Z,80.27
2019-02-06T23:26:04.399Z,79.53
2019-02-06T23:28:33.998Z,86.73
2019-02-06T23:31:03.181Z,78.37
2019-02-06T23:33:32.332Z,74.77
2019-02-06T23:36:01.893Z,77.37
2019-02-06T23:38:31.356Z,82.40
2019-02-06T23:41:00.909Z,78.90
2019-02-06T23:43:30.272Z,77.07
2019-02-06T23:45:59.423Z,78.13
2019-02-06T23:48:28.958Z,78.03
2019-02-06T23:50:58.110Z,66.23
2019-02-06T23:53:27.573Z,71.03
2019-02-06T23:55:56.864Z,77.43
2019-02-06T23:58:26.035Z,80.90
